createdAt,value
2022-09-02T00:01:27.613Z,0.28
2022-09-02T00:04:00.149Z,0.30
2022-09-02T00:06:27.481Z,0.30
2022-09-02T00:08:55.169Z,0.20
2022-09-02T00:11:26.036Z,0.20
2022-09-02T00:13:57.293Z,0.20
2022-09-02T00:16:25.227Z,0.30
2022-09-02T00:18:56.475Z,0.20
2022-09-02T00:21:29.115Z,0.22
2022-09-02T00:23:56.173Z,0.30
2022-09-02T00:26:26.118Z,0.35
2022-09-02T00:28:55.861Z,0.38
2022-09-02T00:31:25.020Z,0.30
2022-09-02T00:33:54.581Z,0.28
2022-09-02T00:36:21.861Z,0.20
2022-09-02T00:38:48.911Z,0.25
2022-09-02T00:41:15.700Z,0.22
2022-09-02T00:43:53.713Z,0.20
2022-09-02T00:46:25.648Z,0.20
2022-09-02T00:49:03.794Z,0.20
2022-09-02T00:51:40.979Z,0.20
2022-09-02T00:54:08.193Z,0.20
2022-09-02T00:56:37.828Z,0.20
2022-09-02T00:59:09.722Z,0.25
2022-09-02T01:01:39.344Z,0.30
2022-09-02T01:04:06.718Z,0.15
2022-09-02T01:06:33.724Z,0.20
2022-09-02T01:09:09.412Z,0.25
2022-09-02T01:11:53.538Z,0.20
2022-09-02T01:14:20.544Z,0.30
2022-09-02T01:16:53.916Z,0.20
2022-09-02T01:19:29.471Z,0.30
2022-09-02T01:22:00.735Z,0.28
2022-09-02T01:24:33.205Z,0.30
2022-09-02T01:27:00.373Z,0.20
2022-09-02T01:29:29.115Z,0.20
2022-09-02T01:31:56.402Z,0.20
2022-09-02T01:34:23.450Z,0.30
2022-09-02T01:36:52.416Z,0.20
2022-09-02T01:39:24.329Z,0.20
2022-09-02T01:42:00.756Z,0.30
2022-09-02T01:44:28.653Z,0.90
2022-09-02T01:46:58.344Z,0.40
2022-09-02T01:49:27.717Z,0.10
2022-09-02T01:51:57.804Z,0.20
2022-09-02T01:54:24.521Z,0.20
2022-09-02T01:56:51.902Z,0.20
2022-09-02T01:59:21.256Z,0.20
2022-09-02T02:01:50.536Z,0.43
2022-09-02T02:04:19.822Z,0.20
2022-09-02T02:06:52.491Z,0.30
2022-09-02T02:09:21.626Z,0.30
2022-09-02T02:14:24.791Z,0.30
2022-09-02T02:16:52.907Z,0.30
2022-09-02T02:19:22.329Z,0.20
2022-09-02T02:21:49.186Z,0.20
2022-09-02T02:24:16.096Z,0.20
2022-09-02T02:26:45.354Z,0.20
2022-09-02T02:29:18.155Z,0.20
2022-09-02T02:31:45.461Z,0.28
2022-09-02T02:34:13.063Z,0.20
2022-09-02T02:36:41.056Z,0.20
2022-09-02T02:39:09.681Z,0.20
2022-09-02T02:41:38.116Z,0.40
2022-09-02T02:44:08.303Z,0.20
2022-09-02T02:46:40.175Z,0.20
2022-09-02T02:49:07.414Z,0.20
2022-09-02T02:51:37.647Z,0.28
2022-09-02T02:54:05.799Z,0.20
2022-09-02T02:56:35.750Z,0.30
2022-09-02T02:59:03.722Z,0.15
2022-09-02T03:01:34.763Z,0.32
2022-09-02T03:04:03.504Z,0.30
2022-09-02T03:06:30.384Z,0.20
2022-09-02T03:09:04.880Z,1.00
2022-09-02T03:11:32.053Z,0.20
2022-09-02T03:14:01.230Z,0.20
2022-09-02T03:16:28.587Z,0.20
2022-09-02T03:18:58.217Z,0.10
2022-09-02T03:21:27.132Z,0.20
2022-09-02T03:26:24.707Z,0.63
2022-09-02T03:28:56.823Z,0.25
2022-09-02T03:31:25.401Z,0.30
2022-09-02T03:33:53.348Z,0.20
2022-09-02T03:36:35.241Z,0.20
2022-09-02T03:39:05.759Z,0.30
2022-09-02T03:41:41.363Z,0.20
2022-09-02T03:44:10.642Z,0.10
2022-09-02T03:46:39.207Z,0.28
2022-09-02T03:49:06.491Z,0.30
2022-09-02T03:51:36.035Z,0.28
2022-09-02T03:54:04.089Z,0.30
2022-09-02T03:56:31.248Z,0.27
2022-09-02T03:59:05.331Z,0.30
2022-09-02T04:01:35.111Z,0.30
2022-09-02T04:04:05.776Z,0.20
2022-09-02T04:06:36.552Z,0.20
2022-09-02T04:09:04.844Z,0.28
2022-09-02T04:14:00.535Z,0.20
2022-09-02T04:16:29.424Z,0.30
2022-09-02T04:19:04.103Z,0.63
2022-09-02T04:21:33.592Z,0.15
2022-09-02T04:24:06.238Z,0.20
2022-09-02T04:26:33.573Z,0.30
2022-09-02T04:29:00.915Z,0.30
2022-09-02T04:31:32.503Z,0.20
2022-09-02T04:34:00.454Z,0.30
2022-09-02T04:36:30.821Z,0.20
2022-09-02T04:39:06.863Z,0.25
2022-09-02T04:41:39.533Z,0.20
2022-09-02T04:44:14.013Z,0.30
2022-09-02T04:46:44.406Z,0.70
2022-09-02T04:49:15.765Z,0.20
2022-09-02T04:51:44.263Z,0.87
2022-09-02T04:54:11.342Z,0.35
2022-09-02T04:56:41.898Z,0.40
2022-09-02T04:59:09.298Z,0.30
2022-09-02T05:01:42.226Z,0.35
2022-09-02T05:04:14.837Z,0.35
2022-09-02T05:06:47.093Z,0.30
2022-09-02T05:09:21.377Z,0.30
2022-09-02T05:11:57.285Z,0.40
2022-09-02T05:14:27.448Z,0.40
2022-09-02T05:16:57.011Z,0.40
2022-09-02T05:19:24.415Z,0.40
2022-09-02T05:21:57.564Z,0.90
2022-09-02T05:24:31.742Z,2.53
2022-09-02T05:27:05.196Z,0.55
2022-09-02T05:29:34.484Z,0.47
2022-09-02T05:32:01.592Z,1.08
2022-09-02T05:34:28.507Z,0.60
2022-09-02T05:36:58.883Z,0.73
2022-09-02T05:39:32.498Z,0.50
2022-09-02T05:42:05.395Z,0.50
2022-09-02T05:44:36.048Z,0.80
2022-09-02T05:47:04.509Z,0.40
2022-09-02T05:49:31.596Z,0.60
2022-09-02T05:52:10.512Z,0.35
2022-09-02T05:54:46.416Z,0.30
2022-09-02T05:57:16.990Z,0.30
2022-09-02T05:59:59.236Z,0.52
2022-09-02T06:02:41.142Z,0.80
2022-09-02T06:05:12.163Z,0.63
2022-09-02T06:07:43.449Z,0.32
2022-09-02T06:10:17.379Z,0.40
2022-09-02T06:12:45.009Z,0.73
2022-09-02T06:15:15.183Z,0.50
2022-09-02T06:17:43.127Z,1.48
2022-09-02T06:20:12.000Z,0.70
2022-09-02T06:22:41.859Z,0.40
2022-09-02T06:25:09.808Z,0.30
2022-09-02T06:27:38.258Z,0.50
2022-09-02T06:30:08.508Z,0.30
2022-09-02T06:32:37.734Z,0.40
2022-09-02T06:35:10.761Z,0.57
2022-09-02T06:37:41.472Z,1.10
2022-09-02T06:40:14.118Z,0.40
2022-09-02T06:42:48.272Z,0.40
2022-09-02T06:45:32.612Z,0.30
2022-09-02T06:48:07.451Z,0.30
2022-09-02T06:50:40.356Z,0.50
2022-09-02T06:53:08.975Z,0.30
2022-09-02T06:55:44.623Z,0.30
2022-09-02T06:58:12.751Z,0.30
2022-09-02T07:00:41.225Z,0.40
2022-09-02T07:03:28.208Z,0.30
2022-09-02T07:06:04.231Z,0.20
2022-09-02T07:08:31.547Z,0.77
2022-09-02T07:10:58.795Z,0.50
2022-09-02T07:13:33.430Z,0.40
2022-09-02T07:16:01.489Z,0.43
2022-09-02T07:18:28.811Z,0.20
2022-09-02T07:20:56.837Z,0.22
2022-09-02T07:23:24.342Z,0.50
2022-09-02T07:25:51.773Z,0.20
2022-09-02T07:28:22.254Z,0.20
2022-09-02T07:30:49.367Z,0.30
2022-09-02T07:33:22.024Z,0.30
2022-09-02T07:35:51.228Z,0.32
2022-09-02T07:38:19.243Z,0.25
2022-09-02T07:40:47.142Z,0.30
2022-09-02T07:43:16.043Z,0.32
2022-09-02T07:45:46.549Z,0.20
2022-09-02T07:48:15.908Z,0.40
2022-09-02T07:50:47.433Z,0.40
2022-09-02T07:53:19.383Z,0.30
2022-09-02T07:55:49.090Z,1.48
2022-09-02T07:58:22.866Z,2.78
2022-09-02T08:00:52.894Z,0.30
2022-09-02T08:03:20.102Z,0.30
2022-09-02T08:05:52.464Z,0.40
2022-09-02T08:08:26.280Z,0.50
2022-09-02T08:10:54.286Z,0.20
2022-09-02T08:13:22.083Z,0.57
2022-09-02T08:15:54.553Z,0.20
2022-09-02T08:18:22.683Z,0.40
2022-09-02T08:20:52.511Z,0.30
2022-09-02T08:23:35.499Z,0.20
2022-09-02T08:26:08.575Z,0.73
2022-09-02T08:31:08.496Z,0.30
2022-09-02T08:33:35.495Z,0.20
2022-09-02T08:36:08.413Z,0.28
2022-09-02T08:38:35.771Z,0.30
2022-09-02T08:41:04.785Z,0.30
2022-09-02T08:43:40.043Z,0.22
2022-09-02T08:46:12.207Z,0.30
2022-09-02T08:48:48.032Z,0.60
2022-09-02T08:51:27.373Z,0.40
2022-09-02T08:54:05.493Z,0.40
2022-09-02T08:56:35.347Z,0.30
2022-09-02T08:59:06.349Z,0.28
2022-09-02T09:01:50.376Z,0.30
2022-09-02T09:04:23.359Z,0.20
2022-09-02T09:07:01.846Z,0.30
2022-09-02T09:09:51.005Z,0.88
2022-09-02T09:12:32.944Z,0.30
2022-09-02T09:15:24.850Z,0.40
2022-09-02T09:18:03.129Z,0.57
2022-09-02T09:20:34.783Z,0.40
2022-09-02T09:23:09.722Z,0.30
2022-09-02T09:25:39.144Z,0.30
2022-09-02T09:28:05.903Z,0.30
2022-09-02T09:30:35.399Z,0.30
2022-09-02T09:33:06.005Z,0.50
2022-09-02T09:35:51.429Z,0.68
2022-09-02T09:38:39.645Z,0.50
2022-09-02T09:41:29.173Z,0.52
2022-09-02T09:44:01.386Z,0.50
2022-09-02T09:46:33.687Z,0.30
2022-09-02T09:49:01.454Z,0.50
2022-09-02T09:51:28.404Z,0.35
2022-09-02T09:54:18.682Z,0.40
2022-09-02T09:56:45.648Z,0.40
2022-09-02T09:59:37.240Z,0.40
2022-09-02T10:02:04.319Z,0.22
2022-09-02T10:04:42.720Z,0.32
2022-09-02T10:07:11.613Z,0.40
2022-09-02T10:09:38.819Z,0.30
2022-09-02T10:12:11.368Z,0.45
2022-09-02T10:14:46.127Z,0.40
2022-09-02T10:17:29.781Z,0.52
2022-09-02T10:20:04.667Z,0.40
2022-09-02T10:23:10.979Z,0.50
2022-09-02T10:26:04.559Z,0.82
2022-09-02T10:28:51.912Z,0.40
2022-09-02T10:31:34.480Z,0.40
2022-09-02T10:34:04.180Z,0.50
2022-09-02T10:36:48.847Z,0.30
2022-09-02T10:39:41.241Z,0.30
2022-09-02T10:42:37.150Z,0.43
2022-09-02T10:45:12.760Z,0.30
2022-09-02T10:47:40.390Z,0.40
2022-09-02T10:50:23.968Z,0.40
2022-09-02T10:53:12.561Z,0.50
2022-09-02T11:00:57.683Z,0.63
2022-09-02T11:03:44.091Z,0.85
2022-09-02T11:06:21.631Z,0.38
2022-09-02T11:08:54.701Z,0.45
2022-09-02T11:11:29.866Z,0.30
2022-09-02T11:14:10.464Z,0.30
2022-09-02T11:17:04.669Z,0.43
2022-09-02T11:19:46.537Z,0.40
2022-09-02T11:22:22.140Z,0.30
2022-09-02T11:25:04.139Z,0.47
2022-09-02T11:27:42.473Z,0.52
2022-09-02T11:30:21.644Z,0.50
2022-09-02T11:35:34.013Z,0.50
2022-09-02T11:38:06.558Z,0.60
2022-09-02T11:43:58.597Z,0.50
2022-09-02T11:46:46.410Z,0.75
2022-09-02T11:49:34.625Z,0.70
2022-09-02T11:52:35.249Z,0.40
2022-09-02T11:55:09.388Z,0.30
2022-09-02T11:57:38.741Z,0.50
2022-09-02T12:00:08.512Z,0.70
2022-09-02T12:02:52.336Z,0.52
2022-09-02T12:05:30.007Z,0.45
2022-09-02T12:08:03.160Z,0.50
2022-09-02T12:10:39.905Z,0.85
2022-09-02T12:13:09.734Z,0.60
2022-09-02T12:15:38.577Z,0.40
2022-09-02T12:20:41.691Z,0.50
2022-09-02T12:23:11.463Z,0.45
2022-09-02T12:25:48.545Z,0.57
2022-09-02T12:28:27.416Z,0.50
2022-09-02T12:31:02.855Z,0.40
2022-09-02T12:33:40.411Z,0.60
2022-09-02T12:36:42.324Z,0.95
2022-09-02T12:39:33.223Z,0.40
2022-09-02T12:42:11.374Z,0.40
2022-09-02T12:45:04.734Z,0.40
2022-09-02T12:47:56.312Z,0.50
2022-09-02T12:50:29.823Z,0.70
2022-09-02T12:53:22.516Z,0.60
2022-09-02T12:56:04.158Z,0.47
2022-09-02T12:58:39.225Z,0.40
2022-09-02T13:01:05.878Z,0.50
2022-09-02T13:03:56.971Z,0.30
2022-09-02T13:06:38.741Z,0.70
2022-09-02T13:09:42.929Z,0.70
2022-09-02T13:12:24.929Z,0.50
2022-09-02T13:15:04.152Z,0.30
2022-09-02T13:18:05.300Z,0.43
2022-09-02T13:20:43.141Z,0.30
2022-09-02T13:23:42.432Z,0.50
2022-09-02T13:26:49.671Z,0.38
2022-09-02T13:30:06.553Z,0.47
2022-09-02T13:32:34.500Z,0.60
2022-09-02T13:37:39.670Z,0.30
2022-09-02T13:40:18.083Z,0.50
2022-09-02T13:42:59.175Z,0.40
2022-09-02T13:45:38.350Z,0.40
2022-09-02T13:48:17.767Z,0.45
2022-09-02T13:50:50.162Z,0.30
2022-09-02T13:54:18.849Z,0.30
2022-09-02T13:56:30.808Z,0.50
2022-09-02T13:58:57.623Z,0.45
2022-09-02T14:01:33.152Z,0.50
2022-09-02T14:04:06.471Z,0.47
2022-09-02T14:06:39.838Z,0.52
2022-09-02T14:09:19.419Z,0.50
2022-09-02T14:11:48.213Z,0.43
2022-09-02T14:14:20.008Z,0.35
2022-09-02T14:16:47.333Z,0.40
2022-09-02T14:19:16.954Z,0.60
2022-09-02T14:21:47.658Z,0.40
2022-09-02T14:24:19.197Z,0.65
2022-09-02T14:26:54.040Z,0.65
2022-09-02T14:29:23.983Z,0.47
2022-09-02T14:32:06.504Z,0.82
2022-09-02T14:34:41.834Z,1.00
2022-09-02T14:37:25.754Z,0.57
2022-09-02T14:40:13.309Z,0.70
2022-09-02T14:42:47.810Z,0.60
2022-09-02T14:45:14.988Z,0.40
2022-09-02T14:47:44.478Z,0.52
2022-09-02T14:50:20.413Z,0.50
2022-09-02T14:52:51.472Z,0.73
2022-09-02T14:55:43.872Z,0.47
2022-09-02T14:58:11.646Z,0.73
2022-09-02T15:00:41.236Z,0.60
2022-09-02T15:03:15.084Z,0.60
2022-09-02T15:05:42.811Z,0.73
2022-09-02T15:08:09.870Z,0.40
2022-09-02T15:10:39.198Z,0.50
2022-09-02T15:13:16.486Z,0.40
2022-09-02T15:15:46.088Z,0.47
2022-09-02T15:18:17.092Z,0.50
2022-09-02T15:20:44.174Z,0.50
2022-09-02T15:23:15.764Z,0.40
2022-09-02T15:25:43.250Z,0.50
2022-09-02T15:28:13.792Z,0.60
2022-09-02T15:30:43.417Z,0.40
2022-09-02T15:33:16.721Z,1.45
2022-09-02T15:35:47.518Z,0.70
2022-09-02T15:38:14.695Z,0.88
2022-09-02T15:40:42.148Z,1.13
2022-09-02T15:43:09.292Z,0.70
2022-09-02T15:45:47.606Z,0.80
2022-09-02T15:48:15.405Z,1.17
2022-09-02T15:50:47.036Z,1.30
2022-09-02T15:53:15.623Z,1.20
2022-09-02T15:55:46.803Z,1.00
2022-09-02T15:58:14.502Z,1.48
2022-09-02T16:00:46.167Z,0.97
2022-09-02T16:03:17.188Z,1.17
2022-09-02T16:05:46.919Z,1.10
2022-09-02T16:08:19.083Z,1.52
2022-09-02T16:10:49.855Z,1.40
2022-09-02T16:13:19.143Z,0.90
2022-09-02T16:15:45.926Z,1.13
2022-09-02T16:18:12.700Z,0.70
2022-09-02T16:20:39.426Z,0.95
2022-09-02T16:23:06.584Z,0.90
2022-09-02T16:25:33.484Z,0.80
2022-09-02T16:28:03.440Z,1.15
2022-09-02T16:30:32.702Z,1.58
2022-09-02T16:33:02.185Z,1.33
2022-09-02T16:35:31.259Z,1.73
2022-09-02T16:37:58.455Z,1.10
2022-09-02T16:40:25.650Z,1.35
2022-09-02T16:42:52.835Z,1.20
2022-09-02T16:45:20.199Z,1.20
2022-09-02T16:47:49.390Z,1.40
2022-09-02T16:50:16.347Z,0.80
2022-09-02T16:52:45.266Z,1.08
2022-09-02T16:57:48.134Z,0.88
2022-09-02T17:00:15.915Z,1.25
2022-09-02T17:02:45.048Z,0.98
2022-09-02T17:05:14.404Z,1.45
2022-09-02T17:07:42.211Z,1.77
2022-09-02T17:10:09.505Z,1.02
2022-09-02T17:12:39.656Z,1.20
2022-09-02T17:15:10.348Z,1.00
2022-09-02T17:17:40.123Z,1.23
2022-09-02T17:20:08.648Z,1.08
2022-09-02T17:22:38.104Z,1.45
2022-09-02T17:25:08.380Z,0.90
2022-09-02T17:27:37.837Z,1.10
2022-09-02T17:30:06.439Z,1.48
2022-09-02T17:32:43.670Z,1.50
2022-09-02T17:35:15.893Z,1.48
2022-09-02T17:37:43.378Z,1.02
2022-09-02T17:40:30.279Z,0.70
2022-09-02T17:43:02.891Z,1.00
2022-09-02T17:45:30.333Z,2.20
2022-09-02T17:47:59.320Z,0.95
2022-09-02T17:50:36.089Z,1.00
2022-09-02T17:53:02.876Z,1.38
2022-09-02T17:58:08.208Z,0.95
2022-09-02T18:00:46.699Z,1.42
2022-09-02T18:03:35.072Z,0.93
2022-09-02T18:06:12.516Z,1.45
2022-09-02T18:08:52.685Z,0.90
2022-09-02T18:11:22.617Z,1.20
2022-09-02T18:14:14.571Z,2.97
2022-09-02T18:16:51.783Z,1.23
2022-09-02T18:19:29.772Z,1.00
2022-09-02T18:22:46.419Z,0.90
2022-09-02T18:25:50.779Z,1.45
2022-09-02T18:28:36.109Z,0.93
2022-09-02T18:31:13.616Z,1.42
2022-09-02T18:33:40.269Z,1.23
2022-09-02T18:36:18.846Z,0.70
2022-09-02T18:39:09.446Z,0.98
2022-09-02T18:41:55.354Z,1.90
2022-09-02T18:45:02.005Z,1.15
2022-09-02T18:47:34.673Z,1.00
2022-09-02T18:50:05.845Z,1.27
2022-09-02T18:52:39.708Z,1.08
2022-09-02T18:55:12.814Z,1.10
2022-09-02T18:58:00.136Z,1.00
2022-09-02T19:00:34.226Z,1.20
2022-09-02T19:03:06.566Z,1.05
2022-09-02T19:05:38.350Z,1.08
2022-09-02T19:08:27.219Z,1.10
2022-09-02T19:11:01.035Z,0.93
2022-09-02T19:13:37.627Z,1.10
2022-09-02T19:16:05.061Z,1.10
2022-09-02T19:18:32.574Z,1.25
2022-09-02T19:20:59.598Z,0.98
2022-09-02T19:23:27.517Z,1.02
2022-09-02T19:25:54.542Z,0.80
2022-09-02T19:28:27.254Z,0.95
2022-09-02T19:30:57.907Z,1.10
2022-09-02T19:33:29.542Z,1.08
2022-09-02T19:36:00.887Z,0.95
2022-09-02T19:38:30.909Z,0.90
2022-09-02T19:40:58.778Z,2.00
2022-09-02T19:43:26.028Z,0.93
2022-09-02T19:45:56.069Z,0.98
2022-09-02T19:48:42.877Z,0.90
2022-09-02T19:51:13.675Z,0.90
2022-09-02T19:53:40.971Z,1.85
2022-09-02T19:56:07.893Z,1.27
2022-09-02T19:58:35.824Z,1.20
2022-09-02T20:01:05.692Z,1.17
2022-09-02T20:03:38.931Z,1.20
2022-09-02T20:06:06.972Z,1.13
2022-09-02T20:08:34.737Z,1.45
2022-09-02T20:11:03.550Z,1.85
2022-09-02T20:13:38.588Z,1.90
2022-09-02T20:16:20.258Z,1.50
2022-09-02T20:18:51.182Z,1.65
2022-09-02T20:21:32.540Z,1.20
2022-09-02T20:24:08.096Z,1.65
2022-09-02T20:26:52.878Z,1.23
2022-09-02T20:29:46.150Z,1.17
2022-09-02T20:32:34.411Z,1.40
2022-09-02T20:35:12.678Z,1.58
2022-09-02T20:37:57.095Z,1.40
2022-09-02T20:40:35.666Z,1.40
2022-09-02T20:43:15.251Z,2.08
2022-09-02T20:46:20.820Z,1.98
2022-09-02T20:49:01.446Z,2.05
2022-09-02T20:51:39.149Z,1.50
2022-09-02T20:54:08.851Z,1.70
2022-09-02T20:56:41.469Z,1.55
2022-09-02T20:59:17.440Z,1.52
2022-09-02T21:01:47.930Z,1.40
2022-09-02T21:04:44.653Z,1.50
2022-09-02T21:07:16.156Z,1.80
2022-09-02T21:09:49.076Z,1.65
2022-09-02T21:12:21.168Z,1.50
2022-09-02T21:14:58.646Z,1.38
2022-09-02T21:17:36.686Z,1.90
2022-09-02T21:20:10.826Z,0.95
2022-09-02T21:22:46.819Z,1.40
2022-09-02T21:25:29.851Z,1.10
2022-09-02T21:28:09.311Z,1.30
2022-09-02T21:30:41.660Z,1.50
2022-09-02T21:33:11.876Z,1.77
2022-09-02T21:35:51.535Z,1.58
2022-09-02T21:38:41.441Z,1.30
2022-09-02T21:41:40.990Z,1.20
2022-09-02T21:44:34.059Z,1.27
2022-09-02T21:47:01.744Z,1.48
2022-09-02T21:49:45.360Z,1.95
2022-09-02T21:52:30.807Z,1.40
2022-09-02T21:55:03.524Z,1.30
2022-09-02T21:57:41.354Z,1.30
2022-09-02T22:00:12.908Z,1.63
2022-09-02T22:03:21.876Z,1.48
2022-09-02T22:05:54.688Z,1.35
2022-09-02T22:08:31.591Z,1.80
2022-09-02T22:11:09.320Z,1.00
2022-09-02T22:13:41.931Z,1.52
2022-09-02T22:16:28.238Z,1.40
2022-09-02T22:19:01.796Z,1.65
2022-09-02T22:21:48.556Z,1.63
2022-09-02T22:24:19.397Z,1.58
2022-09-02T22:26:52.094Z,1.38
2022-09-02T22:29:36.519Z,1.77
2022-09-02T22:32:09.153Z,1.55
2022-09-02T22:34:43.658Z,1.60
2022-09-02T22:37:18.881Z,1.30
2022-09-02T22:39:51.376Z,1.50
2022-09-02T22:42:23.512Z,1.50
2022-09-02T22:45:37.142Z,1.40
2022-09-02T22:48:30.139Z,1.70
2022-09-02T22:51:24.912Z,1.60
2022-09-02T22:53:54.235Z,1.42
2022-09-02T22:56:35.644Z,1.15
2022-09-02T22:59:30.837Z,1.42
2022-09-02T23:02:22.983Z,1.70
2022-09-02T23:04:58.815Z,1.45
2022-09-02T23:07:25.624Z,1.83
2022-09-02T23:09:59.157Z,1.58
2022-09-02T23:12:32.299Z,2.58
2022-09-02T23:15:13.000Z,1.60
2022-09-02T23:18:01.560Z,2.13
2022-09-02T23:21:00.243Z,1.48
2022-09-02T23:23:42.034Z,1.40
2022-09-02T23:26:36.644Z,1.80
2022-09-02T23:29:19.807Z,1.70
2022-09-02T23:32:01.738Z,1.40
2022-09-02T23:34:28.470Z,1.65
2022-09-02T23:37:30.660Z,1.15
2022-09-02T23:40:23.587Z,1.25
2022-09-02T23:42:52.784Z,1.77
2022-09-02T23:48:28.768Z,1.70
2022-09-02T23:51:13.856Z,1.58
2022-09-02T23:54:14.572Z,1.40
2022-09-02T23:57:03.364Z,1.35
2022-09-02T23:59:32.536Z,1.88
